KMFR/MFR METAR and TAF weather

Enter ICAO airport designator
Station Type Date Time Source
KMFR METAR 2019/08/20 08:53 UTC NOAA

KMFR 200853Z AUTO 00000KT 10SM CLR 21/11 A2994 RMK AO2 SLP126 T02110111 51005


Station Type Date Time Source
KMFR Decoded METAR 2019/08/20 08:53 UTC NOAA

ROGUE VALLEY INTERNATIONAL AIRPORT, OR, United States (KMFR) 42-23N 122-53W 396M
Aug 20, 2019 - 04:53 AM EDT / 2019.08.20 0853 UTC
Wind: Calm:0
Visibility: 10 mile(s):0
Sky conditions: clear
Temperature: 70.0 F (21.1 C)
Dew Point: 52.0 F (11.1 C)
Relative Humidity: 52%
Pressure (altimeter): 29.94 in. Hg (1013 hPa)
Pressure tendency: 0.01 inches (0.5 hPa) higher than three hours ago
ob: KMFR 200853Z AUTO 00000KT 10SM CLR 21/11 A2994 RMK AO2 SLP126 T02110111 51005
cycle: 9

Station Type Date Time Source
KMFR TAF 2019/08/20 06:36 UTC NOAA

TAF KMFR 200535Z 2006/2106 VRB03KT P6SM SKC
FM202300 31010G18KT P6SM SKC
FM210400 34005KT P6SM SKC

Example: see airport list